Stamford, NY (12167)

5:14 AM EST on February 06, 2016 (GMT -0500)
Stamford Central School | | Change Station
CLOSE
Current Station
Personal Weather Station
Location: Stamford, NY
Elevation: 1804 ft
Nearby Weather Stations

Elev 1804 ft 42.41 °N, 74.62 °W | Updated 4 minutes ago

Partly Cloudy
Partly Cloudy
19.7 °F
Feels Like 20 °F
N
0.0
Wind Variable Wind from SW

Today
High -- | Low -- °F
--% Chance of Precip.
Yesterday
High -- | Low -- °F
Precip. -- in
Pressure 30.33 in
Visibility 10.0 miles
Clouds Clear
Windchill 20 °F
Dew Point 16 °F
Humidity 84%
Rainfall 0.00 in
Snow Depth Not available.
7:07 AM 5:18 PM
Waning Crescent, 6% visible
METAR KALB 060951Z 19006KT 10SM CLR M05/M09 A3032 RMK AO2 SLP270 T10501094
Pressure 30.33 in
Visibility 10.0 miles
Clouds Clear
Windchill 20 °F
Dew Point 16 °F
Humidity 84%
Rainfall 0.00 in
Snow Depth Not available.
7:07 AM 5:18 PM
Waning Crescent, 6% visible
METAR KALB 060951Z 19006KT 10SM CLR M05/M09 A3032 RMK AO2 SLP270 T10501094

10-Day Weather Forecast

Almanac

Astronomy

Feb. 06, 2016 Rise Set
Actual Time
Civil Twilight
Nautical Twilight
Astronomical Twilight
Moon
Length of Visible Light
Length of Day
Tomorrow will be .
, % of the Moon is Illuminated

Today's Extremes

State Highs State Lows

Community

WunderPhotos

Upload Photos

1,890,933 photos uploaded!

WunderBlog® & News

Nearby

Air Quality

  Air Quality AQ Index Pollutant
Not available.

Snow Depth

Station Depth Elevation

Earthquake Activity

City Distance Mag. Time & Date
Minimum magnitude displayed is 2.5.

Coastal Water Temperatures

Place Temperature

Stations

Nearby Weather Stations

Station Location Temp. Windchill Dew Point Humidity Wind Precip. Elev Updated Type
                   

Watches & Warnings

There are currently no watches in effect.